Time;durP1;ratioP1;P1;durP2;ratioP2;P2;SDS_P1;SDS_P2;PMS_P1;PMS_P2;Temp;Humidity;BMP_temperature;BMP_pressure;BME280_temperature;BME280_humidity;BME280_pressure;Samples;Min_cycle;Max_cycle;Signal;HPM_P1;HPM_P2
2023/12/08 00:00:20;;;;;;;3.38;1.63;;;;;;;;;;6118337;23;20460;-68
2023/12/08 00:02:47;;;;;;;1.80;1.30;;;;;;;;;;6118580;23;20024;-68
2023/12/08 00:05:14;;;;;;;2.45;1.60;;;;;;;;;;6092409;23;20018;-68
2023/12/08 00:07:40;;;;;;;1.92;1.27;;;;;;;;;;6117529;23;20056;-68
2023/12/08 00:10:06;;;;;;;1.45;1.20;;;;;;;;;;6118380;23;20278;-68
2023/12/08 00:12:32;;;;;;;1.80;1.20;;;;;;;;;;6093916;23;20014;-68
2023/12/08 00:14:57;;;;;;;2.65;1.60;;;;;;;;;;6119232;23;20439;-68
2023/12/08 00:17:23;;;;;;;4.15;2.00;;;;;;;;;;6118359;23;20337;-68
2023/12/08 00:19:49;;;;;;;3.47;2.28;;;;;;;;;;6118162;23;20271;-68
2023/12/08 00:22:15;;;;;;;2.38;1.63;;;;;;;;;;6117880;23;20017;-68
2023/12/08 00:24:40;;;;;;;1.98;1.35;;;;;;;;;;6119237;23;20028;-68
2023/12/08 00:27:07;;;;;;;2.78;1.52;;;;;;;;;;6092272;23;20352;-69
2023/12/08 00:29:33;;;;;;;1.83;1.42;;;;;;;;;;6118037;23;20443;-68
2023/12/08 00:31:59;;;;;;;2.60;1.70;;;;;;;;;;6117909;23;20150;-68
2023/12/08 00:34:24;;;;;;;2.60;2.03;;;;;;;;;;6118988;23;20022;-67
2023/12/08 00:36:50;;;;;;;3.15;2.05;;;;;;;;;;6092013;23;20014;-69
2023/12/08 00:39:17;;;;;;;3.00;2.00;;;;;;;;;;6092109;23;20022;-68
2023/12/08 00:41:43;;;;;;;3.80;2.30;;;;;;;;;;6118278;23;20017;-69
2023/12/08 00:44:08;;;;;;;4.32;2.70;;;;;;;;;;6118499;23;20060;-69
2023/12/08 00:46:34;;;;;;;3.70;2.40;;;;;;;;;;6118331;23;20386;-69
2023/12/08 00:49:00;;;;;;;3.72;2.67;;;;;;;;;;6117878;23;20424;-69
2023/12/08 00:51:26;;;;;;;4.82;3.15;;;;;;;;;;6118227;23;20564;-69
2023/12/08 00:53:52;;;;;;;4.78;3.10;;;;;;;;;;6118604;23;20037;-69
2023/12/08 00:56:18;;;;;;;3.67;2.70;;;;;;;;;;6092751;23;20014;-69
2023/12/08 00:58:44;;;;;;;4.95;2.90;;;;;;;;;;6116517;23;20078;-69
2023/12/08 01:01:10;;;;;;;4.18;2.78;;;;;;;;;;6118193;23;20438;-69
2023/12/08 01:03:36;;;;;;;3.30;2.55;;;;;;;;;;6091025;23;20009;-69
2023/12/08 01:06:01;;;;;;;3.15;2.33;;;;;;;;;;6119169;23;20357;-69
2023/12/08 01:08:27;;;;;;;3.70;2.58;;;;;;;;;;6118053;23;20065;-69
2023/12/08 01:10:54;;;;;;;3.10;2.47;;;;;;;;;;6119724;23;20021;-68
2023/12/08 01:13:20;;;;;;;3.63;2.50;;;;;;;;;;6118838;23;20037;-69
2023/12/08 01:15:46;;;;;;;3.60;2.35;;;;;;;;;;6119835;23;20046;-68
2023/12/08 01:18:13;;;;;;;3.17;2.22;;;;;;;;;;6119800;23;20387;-69
2023/12/08 01:20:38;;;;;;;2.88;2.40;;;;;;;;;;6094088;23;20013;-69
2023/12/08 01:23:05;;;;;;;3.78;2.45;;;;;;;;;;6118967;23;20022;-68
2023/12/08 01:25:31;;;;;;;3.20;2.30;;;;;;;;;;6119301;23;20010;-68
2023/12/08 01:27:57;;;;;;;3.90;2.60;;;;;;;;;;6093350;23;20452;-69
2023/12/08 01:30:23;;;;;;;4.32;2.83;;;;;;;;;;6119413;23;20442;-69
2023/12/08 01:32:49;;;;;;;5.80;2.75;;;;;;;;;;6096268;23;20069;-69
2023/12/08 01:35:14;;;;;;;3.35;2.50;;;;;;;;;;6126067;23;20014;-69
2023/12/08 01:37:40;;;;;;;3.47;2.35;;;;;;;;;;6125576;23;20093;-68
2023/12/08 01:40:07;;;;;;;4.80;2.83;;;;;;;;;;6125767;23;20016;-70
2023/12/08 01:42:32;;;;;;;4.00;2.60;;;;;;;;;;6125967;23;20102;-67
2023/12/08 01:44:58;;;;;;;4.20;2.35;;;;;;;;;;6125909;23;20014;-68
2023/12/08 01:47:25;;;;;;;3.03;2.20;;;;;;;;;;6126198;23;20014;-68
2023/12/08 01:49:51;;;;;;;4.55;2.50;;;;;;;;;;6122552;23;20448;-69
2023/12/08 01:52:22;;;;;;;6.80;2.70;;;;;;;;;;6125570;23;20065;-68
2023/12/08 01:54:53;;;;;;;5.70;2.30;;;;;;;;;;6125633;23;20041;-69
2023/12/08 01:57:19;;;;;;;8.68;2.60;;;;;;;;;;6125995;23;20006;-68
2023/12/08 01:59:48;;;;;;;3.72;2.50;;;;;;;;;;6124169;23;20044;-68
2023/12/08 02:02:14;;;;;;;3.03;2.13;;;;;;;;;;6125198;23;20013;-68
2023/12/08 02:04:45;;;;;;;3.45;2.50;;;;;;;;;;6098154;23;20021;-68
2023/12/08 02:07:11;;;;;;;3.60;2.40;;;;;;;;;;6125929;23;20429;-68
2023/12/08 02:09:37;;;;;;;3.40;2.65;;;;;;;;;;6125646;23;20056;-69
2023/12/08 02:12:04;;;;;;;3.72;2.50;;;;;;;;;;6125861;23;20014;-69
2023/12/08 02:14:31;;;;;;;3.65;2.83;;;;;;;;;;6125768;23;20006;-67
2023/12/08 02:17:20;;;;;;;19.65;2.97;;;;;;;;;;6125666;23;20029;-69
2023/12/08 02:19:46;;;;;;;3.75;2.50;;;;;;;;;;6099931;23;20061;-68
2023/12/08 02:22:12;;;;;;;6.50;2.38;;;;;;;;;;6125236;23;20014;-69
2023/12/08 02:24:38;;;;;;;3.85;2.70;;;;;;;;;;6126047;23;20056;-69
2023/12/08 02:27:04;;;;;;;6.45;3.00;;;;;;;;;;6125766;23;20017;-69
2023/12/08 02:29:30;;;;;;;3.60;2.22;;;;;;;;;;6125626;23;20006;-69
2023/12/08 02:32:19;;;;;;;3.63;2.35;;;;;;;;;;6125675;23;20333;-69
2023/12/08 02:34:47;;;;;;;3.63;2.33;;;;;;;;;;6126029;23;20013;-68
2023/12/08 02:37:15;;;;;;;12.07;3.00;;;;;;;;;;6125570;23;20101;-68
2023/12/08 02:39:42;;;;;;;5.40;2.65;;;;;;;;;;6125833;23;20108;-68
2023/12/08 02:42:08;;;;;;;3.78;2.53;;;;;;;;;;6125876;23;20060;-68
2023/12/08 02:44:34;;;;;;;13.52;2.97;;;;;;;;;;6125479;23;20452;-69
2023/12/08 02:47:00;;;;;;;3.92;2.65;;;;;;;;;;6099351;23;20096;-68
2023/12/08 02:49:25;;;;;;;6.60;2.90;;;;;;;;;;6099347;23;20014;-69
2023/12/08 02:51:51;;;;;;;16.00;3.17;;;;;;;;;;6125603;23;20455;-68
2023/12/08 02:54:17;;;;;;;9.70;3.30;;;;;;;;;;6099525;23;20116;-69
2023/12/08 02:56:43;;;;;;;6.75;3.72;;;;;;;;;;6125676;23;20009;-69
2023/12/08 02:59:08;;;;;;;7.13;3.17;;;;;;;;;;6098956;23;20046;-69
2023/12/08 03:01:34;;;;;;;4.38;2.85;;;;;;;;;;6126873;23;20036;-70
2023/12/08 03:04:00;;;;;;;3.85;3.00;;;;;;;;;;6126089;23;20069;-69
2023/12/08 03:06:26;;;;;;;3.90;2.70;;;;;;;;;;6125915;23;20020;-68
2023/12/08 03:08:52;;;;;;;4.85;3.00;;;;;;;;;;6125238;23;20016;-69
2023/12/08 03:11:17;;;;;;;15.38;3.63;;;;;;;;;;6125330;23;20042;-69
2023/12/08 03:13:43;;;;;;;12.13;3.30;;;;;;;;;;6099242;23;20389;-68
2023/12/08 03:16:09;;;;;;;8.18;2.90;;;;;;;;;;6125545;23;20014;-69
2023/12/08 03:18:36;;;;;;;11.90;3.38;;;;;;;;;;6099379;23;20014;-69
2023/12/08 03:21:01;;;;;;;8.25;3.20;;;;;;;;;;6124858;23;20437;-69
2023/12/08 03:23:27;;;;;;;11.13;3.35;;;;;;;;;;6125068;23;20014;-68
2023/12/08 03:25:53;;;;;;;15.63;3.45;;;;;;;;;;6125635;23;20014;-68
2023/12/08 03:28:19;;;;;;;20.63;5.07;;;;;;;;;;6125319;23;20002;-69
2023/12/08 03:30:44;;;;;;;17.00;4.18;;;;;;;;;;6125009;23;20010;-68
2023/12/08 03:33:10;;;;;;;8.02;3.55;;;;;;;;;;6125044;23;20010;-69
2023/12/08 03:35:36;;;;;;;18.67;4.32;;;;;;;;;;6124891;23;20407;-68
2023/12/08 03:38:01;;;;;;;13.30;4.57;;;;;;;;;;6124567;23;20088;-69
2023/12/08 03:40:27;;;;;;;6.97;3.05;;;;;;;;;;6124629;23;20009;-68
2023/12/08 03:42:53;;;;;;;4.40;3.10;;;;;;;;;;6099145;23;20013;-68
2023/12/08 03:45:19;;;;;;;8.13;3.45;;;;;;;;;;6124947;23;20010;-69
2023/12/08 03:47:45;;;;;;;5.72;3.45;;;;;;;;;;6125167;23;20017;-69
2023/12/08 03:50:11;;;;;;;5.32;3.28;;;;;;;;;;6124923;23;20138;-68
2023/12/08 03:52:37;;;;;;;7.35;4.55;;;;;;;;;;6124857;23;20022;-68
2023/12/08 03:55:03;;;;;;;8.80;3.63;;;;;;;;;;6124871;23;20010;-69
2023/12/08 03:57:29;;;;;;;12.40;4.00;;;;;;;;;;6125202;23;20016;-69
2023/12/08 03:59:55;;;;;;;10.77;3.60;;;;;;;;;;6123496;23;20520;-69
2023/12/08 04:02:21;;;;;;;19.15;3.80;;;;;;;;;;6124908;23;20101;-68
2023/12/08 04:04:48;;;;;;;19.23;3.97;;;;;;;;;;6125316;23;20377;-68
2023/12/08 04:07:13;;;;;;;7.03;3.75;;;;;;;;;;6124771;23;20092;-68
2023/12/08 04:09:39;;;;;;;6.47;3.20;;;;;;;;;;6098961;23;20081;-69
2023/12/08 04:12:06;;;;;;;6.38;3.10;;;;;;;;;;6125133;23;20092;-68
2023/12/08 04:14:32;;;;;;;7.15;4.00;;;;;;;;;;6123253;23;20381;-69
2023/12/08 04:16:58;;;;;;;7.53;3.22;;;;;;;;;;6124589;23;20010;-68
2023/12/08 04:19:24;;;;;;;9.07;3.60;;;;;;;;;;6124385;23;20014;-69
2023/12/08 04:21:51;;;;;;;24.67;4.70;;;;;;;;;;6098708;23;20014;-70
2023/12/08 04:24:17;;;;;;;14.02;3.53;;;;;;;;;;6125226;23;20017;-69
2023/12/08 04:26:44;;;;;;;7.28;2.85;;;;;;;;;;6124865;23;20341;-69
2023/12/08 04:29:10;;;;;;;6.60;3.08;;;;;;;;;;6122740;23;20519;-68
2023/12/08 04:31:36;;;;;;;5.93;3.00;;;;;;;;;;6124799;23;20253;-68
2023/12/08 04:34:01;;;;;;;7.32;2.85;;;;;;;;;;6124321;23;20440;-69
2023/12/08 04:36:27;;;;;;;4.03;2.95;;;;;;;;;;6124265;23;20010;-69
2023/12/08 04:38:53;;;;;;;10.05;3.38;;;;;;;;;;6124524;23;20018;-69
2023/12/08 04:41:19;;;;;;;6.00;3.60;;;;;;;;;;6125958;23;20010;-69
2023/12/08 04:43:44;;;;;;;7.93;3.88;;;;;;;;;;6100531;23;20046;-69
2023/12/08 04:46:10;;;;;;;5.50;3.65;;;;;;;;;;6126195;23;20037;-69
2023/12/08 04:48:37;;;;;;;5.35;3.28;;;;;;;;;;6125847;23;20077;-70
2023/12/08 04:51:03;;;;;;;5.50;3.45;;;;;;;;;;6126066;23;20014;-69
2023/12/08 04:53:30;;;;;;;6.50;3.85;;;;;;;;;;6125708;23;20038;-68
2023/12/08 04:55:55;;;;;;;5.68;3.40;;;;;;;;;;6125600;23;20459;-69
2023/12/08 04:58:21;;;;;;;5.65;3.60;;;;;;;;;;6125034;23;20106;-69
2023/12/08 05:00:49;;;;;;;4.70;3.20;;;;;;;;;;6099529;23;20344;-68
2023/12/08 05:03:17;;;;;;;5.72;3.40;;;;;;;;;;6125603;23;20010;-69
2023/12/08 05:05:43;;;;;;;7.05;3.30;;;;;;;;;;6126884;23;20089;-69
2023/12/08 05:08:08;;;;;;;6.43;3.53;;;;;;;;;;6124931;23;20056;-69
2023/12/08 05:10:34;;;;;;;5.80;3.78;;;;;;;;;;6125811;23;20014;-69
2023/12/08 05:13:00;;;;;;;6.10;3.90;;;;;;;;;;6125731;23;20012;-69
2023/12/08 05:15:26;;;;;;;4.80;3.28;;;;;;;;;;6125167;23;20014;-69
2023/12/08 05:17:52;;;;;;;6.65;3.63;;;;;;;;;;6124713;23;20018;-69
2023/12/08 05:20:18;;;;;;;10.95;4.07;;;;;;;;;;6125268;23;20009;-69
2023/12/08 05:22:43;;;;;;;5.32;3.45;;;;;;;;;;6124715;23;20045;-68
2023/12/08 05:25:11;;;;;;;6.57;3.53;;;;;;;;;;6124925;23;20070;-69
2023/12/08 05:27:37;;;;;;;6.90;4.03;;;;;;;;;;6125229;23;20018;-69
2023/12/08 05:30:03;;;;;;;23.25;5.40;;;;;;;;;;6098947;23;20275;-70
2023/12/08 05:32:28;;;;;;;5.90;3.33;;;;;;;;;;6125176;23;20041;-70
2023/12/08 05:34:54;;;;;;;7.57;3.97;;;;;;;;;;6098199;23;20356;-70
2023/12/08 05:37:20;;;;;;;8.13;4.60;;;;;;;;;;6124740;23;20014;-70
2023/12/08 05:39:47;;;;;;;5.80;3.85;;;;;;;;;;6124109;23;20326;-70
2023/12/08 05:42:13;;;;;;;5.38;3.67;;;;;;;;;;6125123;23;20013;-71
2023/12/08 05:44:38;;;;;;;5.72;3.80;;;;;;;;;;6098778;23;20088;-72
2023/12/08 05:47:04;;;;;;;8.32;4.43;;;;;;;;;;6124791;23;20022;-71
2023/12/08 05:49:30;;;;;;;8.30;4.70;;;;;;;;;;6098025;23;20097;-71
2023/12/08 05:51:57;;;;;;;7.10;3.95;;;;;;;;;;6125381;23;20018;-72
2023/12/08 05:54:23;;;;;;;9.63;4.40;;;;;;;;;;6124756;23;20021;-71
2023/12/08 05:56:49;;;;;;;7.40;4.93;;;;;;;;;;6122916;23;20048;-70
2023/12/08 05:59:15;;;;;;;6.07;3.80;;;;;;;;;;6124296;23;20448;-71
2023/12/08 06:01:41;;;;;;;6.10;4.18;;;;;;;;;;6123936;23;20156;-71
2023/12/08 06:04:07;;;;;;;12.00;4.50;;;;;;;;;;6124337;23;20091;-70
2023/12/08 06:06:33;;;;;;;6.05;3.92;;;;;;;;;;6098236;23;20436;-71
2023/12/08 06:08:59;;;;;;;8.52;4.43;;;;;;;;;;6098361;23;20010;-73
2023/12/08 06:11:24;;;;;;;10.25;5.00;;;;;;;;;;6124559;23;20557;-70
2023/12/08 06:13:50;;;;;;;6.30;4.10;;;;;;;;;;6124216;23;20023;-71
2023/12/08 06:16:16;;;;;;;8.32;4.82;;;;;;;;;;6124740;23;20056;-71
2023/12/08 06:18:42;;;;;;;10.60;4.50;;;;;;;;;;6123109;23;20423;-71
2023/12/08 06:21:08;;;;;;;7.07;5.00;;;;;;;;;;6123957;23;20321;-71
2023/12/08 06:23:34;;;;;;;10.48;5.00;;;;;;;;;;6123761;23;20021;-71
2023/12/08 06:26:00;;;;;;;12.40;4.78;;;;;;;;;;6122621;23;20018;-72
2023/12/08 06:28:25;;;;;;;9.93;4.20;;;;;;;;;;6123760;23;20010;-71
2023/12/08 06:30:51;;;;;;;6.72;4.40;;;;;;;;;;6124667;23;20100;-71
2023/12/08 06:33:17;;;;;;;7.45;4.65;;;;;;;;;;6124217;23;20010;-71
2023/12/08 06:35:43;;;;;;;7.93;4.60;;;;;;;;;;6124095;23;20014;-70
2023/12/08 06:38:10;;;;;;;7.68;4.25;;;;;;;;;;6124086;23;20010;-71
2023/12/08 06:40:35;;;;;;;8.32;4.45;;;;;;;;;;6097996;23;20071;-71
2023/12/08 06:43:03;;;;;;;11.93;4.82;;;;;;;;;;6124314;23;20108;-71
2023/12/08 06:45:29;;;;;;;8.40;4.50;;;;;;;;;;6124583;23;20013;-71
2023/12/08 06:47:55;;;;;;;8.25;4.38;;;;;;;;;;6124288;23;20441;-71
2023/12/08 06:50:21;;;;;;;7.72;4.57;;;;;;;;;;6124698;23;20451;-70
2023/12/08 06:52:51;;;;;;;10.35;5.05;;;;;;;;;;6123956;23;20503;-71
2023/12/08 06:55:18;;;;;;;9.07;5.30;;;;;;;;;;6124454;23;20022;-69
2023/12/08 06:57:44;;;;;;;8.10;4.65;;;;;;;;;;6123457;23;20017;-70
2023/12/08 07:00:11;;;;;;;9.00;5.40;;;;;;;;;;6097898;23;20014;-70
2023/12/08 07:02:37;;;;;;;30.35;6.07;;;;;;;;;;6123959;23;20017;-71
2023/12/08 07:05:04;;;;;;;19.77;5.82;;;;;;;;;;6124389;23;20033;-70
2023/12/08 07:07:30;;;;;;;34.08;8.43;;;;;;;;;;6123971;23;20006;-70
2023/12/08 07:09:56;;;;;;;25.25;7.43;;;;;;;;;;6123810;23;20399;-70
2023/12/08 07:12:22;;;;;;;15.43;6.50;;;;;;;;;;6124723;23;20044;-71
2023/12/08 07:14:50;;;;;;;12.15;5.75;;;;;;;;;;6123803;23;20033;-71
2023/12/08 07:17:16;;;;;;;15.57;5.05;;;;;;;;;;6123822;23;20449;-71
2023/12/08 07:19:42;;;;;;;26.45;5.28;;;;;;;;;;6123818;23;20029;-68
2023/12/08 07:22:08;;;;;;;17.65;5.10;;;;;;;;;;6124356;23;20460;-69
2023/12/08 07:24:37;;;;;;;14.93;5.53;;;;;;;;;;6122061;23;20013;-69
2023/12/08 07:27:04;;;;;;;17.17;4.85;;;;;;;;;;6123572;23;20013;-69
2023/12/08 07:29:30;;;;;;;8.60;4.22;;;;;;;;;;6124088;23;20070;-69
2023/12/08 07:31:56;;;;;;;15.02;4.50;;;;;;;;;;6124103;23;20033;-68
2023/12/08 07:34:22;;;;;;;12.75;3.97;;;;;;;;;;6124185;23;20018;-69
2023/12/08 07:36:48;;;;;;;9.95;4.18;;;;;;;;;;6123990;23;20017;-69
2023/12/08 07:39:15;;;;;;;19.42;5.43;;;;;;;;;;6096867;23;20467;-71
2023/12/08 07:41:43;;;;;;;7.57;3.55;;;;;;;;;;6124277;23;20006;-70
2023/12/08 07:44:08;;;;;;;4.63;3.08;;;;;;;;;;6123029;23;20009;-71
2023/12/08 07:46:35;;;;;;;14.15;4.78;;;;;;;;;;6123863;23;20102;-71
2023/12/08 07:49:00;;;;;;;8.32;3.50;;;;;;;;;;6123785;23;20014;-71
2023/12/08 07:51:27;;;;;;;22.38;4.72;;;;;;;;;;6123671;23;20017;-70
2023/12/08 07:53:53;;;;;;;9.10;3.53;;;;;;;;;;6123836;23;20057;-72
2023/12/08 07:56:20;;;;;;;8.35;3.63;;;;;;;;;;6124184;23;20436;-70
2023/12/08 07:58:45;;;;;;;15.90;5.07;;;;;;;;;;6123146;23;20432;-72
2023/12/08 08:01:11;;;;;;;6.38;4.15;;;;;;;;;;6123917;23;20078;-70
2023/12/08 08:03:37;;;;;;;8.10;3.90;;;;;;;;;;6122025;23;20021;-72
2023/12/08 08:06:03;;;;;;;12.50;3.78;;;;;;;;;;6124354;23;20013;-72
2023/12/08 08:08:29;;;;;;;12.60;5.03;;;;;;;;;;6123168;23;20025;-71
2023/12/08 08:10:55;;;;;;;9.63;3.75;;;;;;;;;;6123655;23;20398;-72
2023/12/08 08:13:21;;;;;;;9.48;4.00;;;;;;;;;;6123462;23;20014;-71
2023/12/08 08:15:47;;;;;;;9.07;3.67;;;;;;;;;;6125244;23;20006;-71
2023/12/08 08:18:12;;;;;;;3.95;3.17;;;;;;;;;;6124307;23;20014;-72
2023/12/08 08:20:38;;;;;;;5.70;3.28;;;;;;;;;;6099680;23;20018;-71
2023/12/08 08:23:04;;;;;;;4.30;2.78;;;;;;;;;;6124785;23;20041;-70
2023/12/08 08:25:31;;;;;;;7.45;3.20;;;;;;;;;;6125624;23;20085;-70
2023/12/08 08:28:00;;;;;;;5.80;2.40;;;;;;;;;;6125874;23;20037;-70
2023/12/08 08:30:26;;;;;;;4.18;2.20;;;;;;;;;;6125879;23;20053;-69
2023/12/08 08:32:52;;;;;;;5.95;2.50;;;;;;;;;;6099610;23;20024;-69
2023/12/08 08:35:18;;;;;;;4.10;2.88;;;;;;;;;;6125649;23;20022;-69
2023/12/08 08:37:44;;;;;;;6.07;2.60;;;;;;;;;;6075247;23;20296;-69
2023/12/08 08:40:11;;;;;;;4.80;3.28;;;;;;;;;;6125103;23;20500;-70
2023/12/08 08:42:37;;;;;;;5.80;3.33;;;;;;;;;;6125729;23;20052;-70
2023/12/08 08:45:04;;;;;;;9.75;4.22;;;;;;;;;;6075702;23;20021;-70
2023/12/08 08:47:30;;;;;;;8.00;4.53;;;;;;;;;;6099612;23;20010;-70
2023/12/08 08:49:56;;;;;;;15.57;5.78;;;;;;;;;;6124268;23;20010;-70
2023/12/08 08:52:22;;;;;;;8.82;4.43;;;;;;;;;;6125613;23;20021;-69
2023/12/08 08:54:49;;;;;;;8.80;3.92;;;;;;;;;;6124743;23;20333;-69
2023/12/08 08:57:16;;;;;;;14.10;4.22;;;;;;;;;;6099808;23;20085;-71
2023/12/08 08:59:42;;;;;;;7.88;3.47;;;;;;;;;;6124919;23;20044;-70
2023/12/08 09:02:08;;;;;;;8.02;3.50;;;;;;;;;;6124848;23;20336;-70
2023/12/08 09:04:34;;;;;;;19.33;4.75;;;;;;;;;;6125059;23;20089;-70
2023/12/08 09:07:00;;;;;;;5.97;3.30;;;;;;;;;;6125645;23;20013;-71
2023/12/08 09:09:27;;;;;;;9.65;3.67;;;;;;;;;;6124831;23;20006;-71
2023/12/08 09:11:53;;;;;;;16.45;3.75;;;;;;;;;;6125094;23;20088;-71
2023/12/08 09:14:18;;;;;;;14.80;5.32;;;;;;;;;;6124807;23;20017;-70
2023/12/08 09:16:46;;;;;;;8.10;3.47;;;;;;;;;;6125226;23;20048;-70
2023/12/08 09:19:12;;;;;;;11.90;3.70;;;;;;;;;;6123375;23;20021;-70
2023/12/08 09:21:38;;;;;;;5.03;3.17;;;;;;;;;;6125082;23;20081;-70
2023/12/08 09:24:04;;;;;;;9.77;3.97;;;;;;;;;;6124805;23;20014;-70
2023/12/08 09:26:30;;;;;;;13.75;4.15;;;;;;;;;;6125118;23;20018;-71
2023/12/08 09:28:56;;;;;;;15.40;4.05;;;;;;;;;;6124035;23;20017;-70
2023/12/08 09:31:23;;;;;;;14.18;6.15;;;;;;;;;;6123960;23;20501;-70
2023/12/08 09:33:49;;;;;;;10.63;4.00;;;;;;;;;;6124648;23;20086;-70
2023/12/08 09:36:16;;;;;;;7.50;3.20;;;;;;;;;;6124273;23;20045;-71
2023/12/08 09:38:42;;;;;;;6.13;3.30;;;;;;;;;;6123894;23;20093;-70
2023/12/08 09:41:08;;;;;;;5.93;3.67;;;;;;;;;;6098278;23;20041;-72
2023/12/08 09:43:45;;;;;;;11.35;3.65;;;;;;;;;;6123556;23;20018;-70
2023/12/08 09:46:14;;;;;;;5.70;3.60;;;;;;;;;;6125200;23;20041;-73
2023/12/08 09:48:42;;;;;;;7.90;3.83;;;;;;;;;;6123723;23;20002;-71
2023/12/08 09:51:08;;;;;;;6.30;3.70;;;;;;;;;;6125184;23;20428;-71
2023/12/08 09:53:35;;;;;;;5.65;3.97;;;;;;;;;;6124387;23;20033;-69
2023/12/08 09:56:02;;;;;;;9.88;3.38;;;;;;;;;;6098091;23;20018;-70
2023/12/08 09:58:29;;;;;;;9.38;3.05;;;;;;;;;;6123836;23;20010;-71
2023/12/08 10:00:58;;;;;;;5.22;3.05;;;;;;;;;;6124159;23;20066;-72
2023/12/08 10:03:25;;;;;;;5.40;3.08;;;;;;;;;;6124527;23;20348;-71
2023/12/08 10:05:53;;;;;;;12.02;4.13;;;;;;;;;;6098251;23;20010;-71
2023/12/08 10:08:21;;;;;;;13.25;3.40;;;;;;;;;;6124544;23;20096;-71
2023/12/08 10:10:48;;;;;;;6.20;2.58;;;;;;;;;;6098905;23;20010;-69
2023/12/08 10:13:15;;;;;;;5.88;2.90;;;;;;;;;;6123857;23;20021;-71
2023/12/08 10:15:44;;;;;;;4.85;2.95;;;;;;;;;;6124564;23;20077;-71
2023/12/08 10:18:28;;;;;;;6.55;2.90;;;;;;;;;;6123054;23;20040;-70
2023/12/08 10:21:12;;;;;;;;;;;;;;;;;;6125008;23;20085;-70
2023/12/08 10:23:38;;;;;;;4.88;3.08;;;;;;;;;;6098874;23;19909;-69
2023/12/08 10:26:04;;;;;;;5.93;3.05;;;;;;;;;;6123659;23;20017;-70
2023/12/08 10:28:33;;;;;;;6.63;3.30;;;;;;;;;;6098102;23;20065;-71
2023/12/08 10:30:59;;;;;;;4.68;3.10;;;;;;;;;;6124404;23;20006;-72
2023/12/08 10:33:25;;;;;;;5.53;2.97;;;;;;;;;;6124065;23;20036;-71
2023/12/08 10:35:52;;;;;;;6.10;3.03;;;;;;;;;;6124303;23;20017;-71
2023/12/08 10:38:21;;;;;;;4.65;3.17;;;;;;;;;;6096894;23;20041;-71
2023/12/08 10:40:52;;;;;;;9.77;3.78;;;;;;;;;;6074673;23;20478;-71
2023/12/08 10:43:28;;;;;;;4.88;3.03;;;;;;;;;;6123108;23;20069;-71
2023/12/08 10:45:55;;;;;;;4.78;3.42;;;;;;;;;;6126550;23;20412;-70
2023/12/08 10:48:22;;;;;;;10.82;3.40;;;;;;;;;;6122947;23;20009;-71
2023/12/08 10:50:52;;;;;;;8.15;3.10;;;;;;;;;;6123972;23;20354;-70
2023/12/08 10:53:20;;;;;;;5.15;2.80;;;;;;;;;;6124006;23;20022;-71
2023/12/08 10:55:59;;;;;;;4.20;3.20;;;;;;;;;;6123572;23;20129;-70
2023/12/08 10:58:26;;;;;;;5.00;3.40;;;;;;;;;;6123342;23;20508;-71
2023/12/08 11:00:54;;;;;;;12.73;4.15;;;;;;;;;;6123869;23;20014;-71
2023/12/08 11:03:21;;;;;;;6.40;3.40;;;;;;;;;;6122876;23;20006;-69
2023/12/08 11:06:02;;;;;;;8.77;3.75;;;;;;;;;;6123967;23;20013;-71
2023/12/08 11:08:29;;;;;;;7.30;3.47;;;;;;;;;;6123168;23;20129;-70
2023/12/08 11:10:59;;;;;;;6.45;4.07;;;;;;;;;;6122877;23;20014;-68
2023/12/08 11:13:30;;;;;;;7.05;3.72;;;;;;;;;;6123475;23;20120;-71
2023/12/08 11:16:30;;;;;;;14.60;3.88;;;;;;;;;;6123421;23;20013;-71
2023/12/08 11:18:56;;;;;;;8.02;3.55;;;;;;;;;;6122389;23;20021;-70
2023/12/08 11:21:22;;;;;;;17.85;4.47;;;;;;;;;;6124250;23;20049;-70
2023/12/08 11:23:49;;;;;;;4.05;2.80;;;;;;;;;;6123105;23;20218;-71
2023/12/08 11:26:21;;;;;;;6.15;3.25;;;;;;;;;;6123630;23;20335;-70
2023/12/08 11:29:08;;;;;;;10.05;3.80;;;;;;;;;;6122969;23;20081;-71
2023/12/08 11:32:10;;;;;;;7.97;3.10;;;;;;;;;;6125390;23;20040;-71
2023/12/08 11:35:00;;;;;;;5.65;3.00;;;;;;;;;;6126046;23;20389;-70
2023/12/08 11:37:32;;;;;;;6.53;3.42;;;;;;;;;;6123760;23;20448;-70
2023/12/08 11:40:11;;;;;;;10.82;3.67;;;;;;;;;;6122619;23;20014;-72
2023/12/08 11:42:39;;;;;;;6.70;3.58;;;;;;;;;;6123422;23;20006;-72
2023/12/08 11:45:09;;;;;;;4.72;2.88;;;;;;;;;;6123786;23;20017;-71
2023/12/08 11:47:35;;;;;;;5.22;3.42;;;;;;;;;;6097317;23;20038;-71
2023/12/08 11:50:05;;;;;;;8.57;3.40;;;;;;;;;;6123828;23;20351;-71
2023/12/08 11:52:33;;;;;;;8.80;3.60;;;;;;;;;;6123423;23;20014;-70
2023/12/08 11:55:09;;;;;;;6.65;3.38;;;;;;;;;;6122841;23;20389;-71
2023/12/08 11:57:41;;;;;;;5.45;3.33;;;;;;;;;;6121150;23;20009;-72
2023/12/08 12:00:11;;;;;;;10.40;4.78;;;;;;;;;;6121430;23;20018;-71
2023/12/08 12:02:41;;;;;;;10.23;4.00;;;;;;;;;;6096016;23;20413;-71
2023/12/08 12:05:08;;;;;;;13.38;4.47;;;;;;;;;;6123245;23;20056;-72
2023/12/08 12:07:35;;;;;;;8.70;4.25;;;;;;;;;;6121956;23;20527;-71
2023/12/08 12:10:03;;;;;;;8.20;4.43;;;;;;;;;;6122703;23;20021;-71
2023/12/08 12:12:31;;;;;;;13.80;5.85;;;;;;;;;;6096661;23;20018;-71
2023/12/08 12:15:01;;;;;;;12.05;4.05;;;;;;;;;;6121539;23;20038;-71
2023/12/08 12:17:28;;;;;;;6.65;4.25;;;;;;;;;;6097518;23;20211;-71
2023/12/08 12:19:55;;;;;;;29.42;6.28;;;;;;;;;;6123578;23;20463;-71
2023/12/08 12:22:22;;;;;;;7.68;4.13;;;;;;;;;;6123031;23;20018;-72
2023/12/08 12:24:48;;;;;;;10.82;4.47;;;;;;;;;;6123434;23;20330;-71
2023/12/08 12:27:15;;;;;;;10.23;5.03;;;;;;;;;;6123914;23;20013;-71
2023/12/08 12:29:44;;;;;;;22.23;7.47;;;;;;;;;;6123823;23;20010;-73
2023/12/08 12:32:10;;;;;;;9.80;4.32;;;;;;;;;;6123154;23;20061;-72
2023/12/08 12:34:39;;;;;;;18.63;5.45;;;;;;;;;;6123885;23;20049;-70
2023/12/08 12:37:06;;;;;;;12.02;4.28;;;;;;;;;;6124062;23;20440;-71
2023/12/08 12:39:33;;;;;;;7.07;3.80;;;;;;;;;;6124111;23;20089;-72
2023/12/08 12:42:01;;;;;;;8.23;4.20;;;;;;;;;;6124197;23;20055;-71
2023/12/08 12:44:47;;;;;;;8.30;3.88;;;;;;;;;;6124672;23;20445;-71
2023/12/08 12:47:26;;;;;;;16.13;5.22;;;;;;;;;;6123823;23;20025;-73
2023/12/08 12:50:10;;;;;;;7.57;4.10;;;;;;;;;;6123784;23;20008;-72
2023/12/08 12:52:39;;;;;;;8.05;4.60;;;;;;;;;;6122458;23;20045;-70
2023/12/08 12:55:26;;;;;;;9.38;6.63;;;;;;;;;;6123485;23;20433;-70
2023/12/08 12:57:52;;;;;;;11.43;5.78;;;;;;;;;;6123407;23;20018;-70
2023/12/08 13:00:34;;;;;;;13.70;7.47;;;;;;;;;;6124410;23;20316;-72
2023/12/08 13:03:10;;;;;;;11.65;6.95;;;;;;;;;;6125444;23;20025;-71
2023/12/08 13:05:56;;;;;;;10.95;6.07;;;;;;;;;;6125391;23;20013;-71
2023/12/08 13:08:23;;;;;;;11.73;6.63;;;;;;;;;;6125742;23;20088;-71
2023/12/08 13:10:50;;;;;;;10.75;6.47;;;;;;;;;;6126363;23;20005;-72
2023/12/08 13:13:16;;;;;;;10.98;5.35;;;;;;;;;;6125451;23;20014;-71
2023/12/08 13:15:42;;;;;;;11.18;5.13;;;;;;;;;;6125276;23;20098;-71
2023/12/08 13:18:09;;;;;;;9.35;4.43;;;;;;;;;;6123840;23;20017;-71
2023/12/08 13:20:34;;;;;;;6.45;4.65;;;;;;;;;;6101468;23;20013;-72
2023/12/08 13:23:01;;;;;;;7.10;4.90;;;;;;;;;;6126021;23;20460;-71
2023/12/08 13:25:27;;;;;;;20.30;5.38;;;;;;;;;;6126191;23;20013;-70
2023/12/08 13:27:53;;;;;;;8.52;4.75;;;;;;;;;;6125278;23;20467;-70
2023/12/08 13:30:18;;;;;;;7.15;4.47;;;;;;;;;;6125388;23;20002;-70
2023/12/08 13:32:45;;;;;;;14.50;5.07;;;;;;;;;;6125345;23;20010;-71
2023/12/08 13:35:11;;;;;;;23.25;5.80;;;;;;;;;;6125231;23;20029;-71
2023/12/08 13:37:37;;;;;;;8.07;4.50;;;;;;;;;;6125570;23;20021;-71
2023/12/08 13:40:04;;;;;;;4.88;3.40;;;;;;;;;;6126025;23;20089;-71
2023/12/08 13:42:30;;;;;;;10.55;5.22;;;;;;;;;;6124609;23;20092;-71
2023/12/08 13:44:56;;;;;;;7.22;4.32;;;;;;;;;;6125719;23;20353;-72
2023/12/08 13:47:22;;;;;;;9.30;3.95;;;;;;;;;;6125310;23;20010;-69
2023/12/08 13:49:50;;;;;;;9.48;4.18;;;;;;;;;;6125753;23;20056;-71
2023/12/08 13:52:16;;;;;;;5.13;3.53;;;;;;;;;;6123896;23;20014;-70
2023/12/08 13:54:43;;;;;;;6.80;4.03;;;;;;;;;;6124934;23;20014;-69
2023/12/08 13:57:10;;;;;;;4.75;3.17;;;;;;;;;;6125095;23;20014;-69
2023/12/08 13:59:36;;;;;;;5.45;3.20;;;;;;;;;;6125001;23;20448;-70
2023/12/08 14:02:02;;;;;;;8.68;4.13;;;;;;;;;;6125066;23;20058;-70
2023/12/08 14:04:29;;;;;;;6.28;3.95;;;;;;;;;;6125190;23;20020;-70
2023/12/08 14:06:55;;;;;;;11.63;4.32;;;;;;;;;;6125284;23;20084;-69
2023/12/08 14:09:22;;;;;;;6.75;3.50;;;;;;;;;;6124700;23;20021;-71
2023/12/08 14:11:48;;;;;;;10.40;3.30;;;;;;;;;;6124662;23;20006;-69
2023/12/08 14:14:14;;;;;;;6.32;3.28;;;;;;;;;;6125406;23;20017;-70
2023/12/08 14:16:39;;;;;;;7.18;3.40;;;;;;;;;;6129006;23;20012;-69
2023/12/08 14:19:05;;;;;;;8.60;3.85;;;;;;;;;;6125504;23;20013;-69
2023/12/08 14:21:31;;;;;;;14.60;4.50;;;;;;;;;;6125008;23;20009;-70
2023/12/08 14:23:56;;;;;;;14.07;5.25;;;;;;;;;;6124952;23;20025;-70
2023/12/08 14:26:22;;;;;;;5.78;3.65;;;;;;;;;;6124823;23;20014;-71
2023/12/08 14:28:48;;;;;;;5.78;3.60;;;;;;;;;;6124324;23;20033;-70
2023/12/08 14:31:14;;;;;;;4.97;3.38;;;;;;;;;;6124857;23;20326;-70
2023/12/08 14:33:40;;;;;;;12.52;4.10;;;;;;;;;;6123601;23;20436;-71
2023/12/08 14:36:06;;;;;;;10.32;4.25;;;;;;;;;;6123989;23;20385;-70
2023/12/08 14:38:32;;;;;;;9.82;4.53;;;;;;;;;;6098085;23;20041;-70
2023/12/08 14:40:59;;;;;;;7.03;4.88;;;;;;;;;;6124761;23;20017;-71